sensor_id;sensor_type;location;lat;lon;timestamp;P1;durP1;ratioP1;P2;durP2;ratioP2
63370;SDS011;49504;48.336;14.472;2022-11-15T00:04:32;4.28;;;1.90;;
63370;SDS011;49504;48.336;14.472;2022-11-15T00:09:34;3.65;;;1.75;;
63370;SDS011;49504;48.336;14.472;2022-11-15T00:14:35;3.35;;;1.42;;
63370;SDS011;49504;48.336;14.472;2022-11-15T00:19:36;4.07;;;1.70;;
63370;SDS011;49504;48.336;14.472;2022-11-15T00:24:38;3.55;;;1.67;;
63370;SDS011;49504;48.336;14.472;2022-11-15T00:29:39;3.58;;;1.80;;
63370;SDS011;49504;48.336;14.472;2022-11-15T00:34:40;3.33;;;1.60;;
63370;SDS011;49504;48.336;14.472;2022-11-15T00:39:43;3.20;;;1.50;;
63370;SDS011;49504;48.336;14.472;2022-11-15T00:44:43;3.95;;;2.05;;
63370;SDS011;49504;48.336;14.472;2022-11-15T00:49:44;3.50;;;1.55;;
63370;SDS011;49504;48.336;14.472;2022-11-15T00:54:47;3.03;;;1.58;;
63370;SDS011;49504;48.336;14.472;2022-11-15T00:59:48;3.88;;;1.90;;
63370;SDS011;49504;48.336;14.472;2022-11-15T01:04:48;3.67;;;1.65;;
63370;SDS011;49504;48.336;14.472;2022-11-15T01:09:51;2.92;;;1.40;;
63370;SDS011;49504;48.336;14.472;2022-11-15T01:14:52;3.50;;;1.70;;
63370;SDS011;49504;48.336;14.472;2022-11-15T01:19:53;3.25;;;1.73;;
63370;SDS011;49504;48.336;14.472;2022-11-15T01:24:55;3.30;;;1.70;;
63370;SDS011;49504;48.336;14.472;2022-11-15T01:29:56;3.13;;;1.40;;
63370;SDS011;49504;48.336;14.472;2022-11-15T01:34:57;3.08;;;1.33;;
63370;SDS011;49504;48.336;14.472;2022-11-15T01:39:59;4.28;;;1.80;;
63370;SDS011;49504;48.336;14.472;2022-11-15T01:45:12;3.90;;;1.80;;
63370;SDS011;49504;48.336;14.472;2022-11-15T01:50:15;3.28;;;1.40;;
63370;SDS011;49504;48.336;14.472;2022-11-15T01:55:21;3.38;;;1.40;;
63370;SDS011;49504;48.336;14.472;2022-11-15T02:00:27;3.05;;;1.50;;
63370;SDS011;49504;48.336;14.472;2022-11-15T02:05:29;3.10;;;1.50;;
63370;SDS011;49504;48.336;14.472;2022-11-15T02:10:31;3.10;;;1.40;;
63370;SDS011;49504;48.336;14.472;2022-11-15T02:15:35;4.07;;;1.50;;
63370;SDS011;49504;48.336;14.472;2022-11-15T02:20:43;2.40;;;1.02;;
63370;SDS011;49504;48.336;14.472;2022-11-15T02:25:57;2.97;;;1.42;;
63370;SDS011;49504;48.336;14.472;2022-11-15T02:35:49;3.25;;;1.48;;
63370;SDS011;49504;48.336;14.472;2022-11-15T02:40:59;3.22;;;1.45;;
63370;SDS011;49504;48.336;14.472;2022-11-15T02:46:06;3.30;;;1.50;;
63370;SDS011;49504;48.336;14.472;2022-11-15T02:53:32;3.10;;;1.50;;
63370;SDS011;49504;48.336;14.472;2022-11-15T03:04:02;3.50;;;1.65;;
63370;SDS011;49504;48.336;14.472;2022-11-15T03:09:19;3.10;;;1.52;;
63370;SDS011;49504;48.336;14.472;2022-11-15T03:14:31;2.78;;;1.20;;
63370;SDS011;49504;48.336;14.472;2022-11-15T03:19:37;3.63;;;1.40;;
63370;SDS011;49504;48.336;14.472;2022-11-15T03:24:46;3.83;;;1.60;;
63370;SDS011;49504;48.336;14.472;2022-11-15T03:30:05;3.42;;;1.50;;
63370;SDS011;49504;48.336;14.472;2022-11-15T03:35:09;3.10;;;1.60;;
63370;SDS011;49504;48.336;14.472;2022-11-15T03:40:12;3.28;;;1.42;;
63370;SDS011;49504;48.336;14.472;2022-11-15T03:45:17;3.40;;;1.60;;
63370;SDS011;49504;48.336;14.472;2022-11-15T03:50:22;3.33;;;1.55;;
63370;SDS011;49504;48.336;14.472;2022-11-15T04:00:06;3.03;;;1.48;;
63370;SDS011;49504;48.336;14.472;2022-11-15T04:05:09;2.90;;;1.30;;
63370;SDS011;49504;48.336;14.472;2022-11-15T04:10:10;3.40;;;1.75;;
63370;SDS011;49504;48.336;14.472;2022-11-15T04:15:14;3.15;;;1.38;;
63370;SDS011;49504;48.336;14.472;2022-11-15T04:20:18;2.85;;;1.48;;
63370;SDS011;49504;48.336;14.472;2022-11-15T04:25:21;3.22;;;1.48;;
63370;SDS011;49504;48.336;14.472;2022-11-15T04:30:23;3.38;;;1.65;;
63370;SDS011;49504;48.336;14.472;2022-11-15T04:35:24;3.38;;;1.50;;
63370;SDS011;49504;48.336;14.472;2022-11-15T04:40:25;4.03;;;1.90;;
63370;SDS011;49504;48.336;14.472;2022-11-15T04:45:28;3.40;;;1.58;;
63370;SDS011;49504;48.336;14.472;2022-11-15T04:50:29;3.20;;;1.30;;
63370;SDS011;49504;48.336;14.472;2022-11-15T04:57:32;3.60;;;1.52;;
63370;SDS011;49504;48.336;14.472;2022-11-15T05:02:33;3.47;;;1.48;;
63370;SDS011;49504;48.336;14.472;2022-11-15T05:07:34;3.20;;;1.50;;
63370;SDS011;49504;48.336;14.472;2022-11-15T05:12:36;4.40;;;1.45;;
63370;SDS011;49504;48.336;14.472;2022-11-15T05:17:37;4.47;;;1.50;;
63370;SDS011;49504;48.336;14.472;2022-11-15T05:22:38;5.90;;;2.20;;
63370;SDS011;49504;48.336;14.472;2022-11-15T05:27:41;4.22;;;1.77;;
63370;SDS011;49504;48.336;14.472;2022-11-15T05:32:42;7.03;;;1.90;;
63370;SDS011;49504;48.336;14.472;2022-11-15T05:39:57;5.15;;;1.90;;
63370;SDS011;49504;48.336;14.472;2022-11-15T05:44:58;5.07;;;2.00;;
63370;SDS011;49504;48.336;14.472;2022-11-15T05:50:01;9.30;;;2.72;;
63370;SDS011;49504;48.336;14.472;2022-11-15T05:55:05;5.45;;;2.10;;
63370;SDS011;49504;48.336;14.472;2022-11-15T06:03:07;7.68;;;1.88;;
63370;SDS011;49504;48.336;14.472;2022-11-15T06:08:08;4.93;;;2.10;;
63370;SDS011;49504;48.336;14.472;2022-11-15T06:13:09;5.00;;;2.20;;
63370;SDS011;49504;48.336;14.472;2022-11-15T06:18:12;5.13;;;2.30;;
63370;SDS011;49504;48.336;14.472;2022-11-15T06:23:13;4.03;;;1.55;;
63370;SDS011;49504;48.336;14.472;2022-11-15T06:28:14;4.82;;;1.92;;
63370;SDS011;49504;48.336;14.472;2022-11-15T06:33:16;4.50;;;1.80;;
63370;SDS011;49504;48.336;14.472;2022-11-15T06:38:17;4.18;;;1.95;;
63370;SDS011;49504;48.336;14.472;2022-11-15T06:43:18;4.88;;;1.80;;
63370;SDS011;49504;48.336;14.472;2022-11-15T06:48:20;3.90;;;1.48;;
63370;SDS011;49504;48.336;14.472;2022-11-15T06:53:21;4.95;;;1.40;;
63370;SDS011;49504;48.336;14.472;2022-11-15T06:58:23;4.00;;;1.80;;
63370;SDS011;49504;48.336;14.472;2022-11-15T07:03:25;3.83;;;1.55;;
63370;SDS011;49504;48.336;14.472;2022-11-15T07:08:26;4.18;;;1.30;;
63370;SDS011;49504;48.336;14.472;2022-11-15T07:13:29;4.97;;;1.80;;
63370;SDS011;49504;48.336;14.472;2022-11-15T07:20:48;5.30;;;1.80;;
63370;SDS011;49504;48.336;14.472;2022-11-15T07:29:51;3.65;;;1.77;;
63370;SDS011;49504;48.336;14.472;2022-11-15T07:34:52;4.47;;;1.60;;
63370;SDS011;49504;48.336;14.472;2022-11-15T07:39:53;4.15;;;1.80;;
63370;SDS011;49504;48.336;14.472;2022-11-15T07:44:55;3.40;;;1.42;;
63370;SDS011;49504;48.336;14.472;2022-11-15T07:50:23;3.50;;;1.50;;
63370;SDS011;49504;48.336;14.472;2022-11-15T07:55:24;3.97;;;1.80;;
63370;SDS011;49504;48.336;14.472;2022-11-15T08:00:27;3.95;;;1.80;;
63370;SDS011;49504;48.336;14.472;2022-11-15T08:09:11;6.07;;;2.00;;
63370;SDS011;49504;48.336;14.472;2022-11-15T08:14:12;4.18;;;1.80;;
63370;SDS011;49504;48.336;14.472;2022-11-15T08:19:13;4.18;;;2.05;;
63370;SDS011;49504;48.336;14.472;2022-11-15T08:24:16;4.00;;;1.60;;
63370;SDS011;49504;48.336;14.472;2022-11-15T08:29:17;3.45;;;1.65;;
63370;SDS011;49504;48.336;14.472;2022-11-15T08:34:18;4.55;;;1.67;;
63370;SDS011;49504;48.336;14.472;2022-11-15T08:39:20;4.18;;;1.60;;
63370;SDS011;49504;48.336;14.472;2022-11-15T08:44:21;3.90;;;1.73;;
63370;SDS011;49504;48.336;14.472;2022-11-15T08:49:22;3.50;;;1.95;;
63370;SDS011;49504;48.336;14.472;2022-11-15T08:56:36;3.80;;;1.80;;
63370;SDS011;49504;48.336;14.472;2022-11-15T09:01:37;3.53;;;1.58;;
63370;SDS011;49504;48.336;14.472;2022-11-15T09:06:38;4.95;;;2.00;;
63370;SDS011;49504;48.336;14.472;2022-11-15T09:11:40;4.20;;;1.90;;
63370;SDS011;49504;48.336;14.472;2022-11-15T09:16:41;4.15;;;2.08;;
63370;SDS011;49504;48.336;14.472;2022-11-15T09:21:42;6.07;;;1.73;;
63370;SDS011;49504;48.336;14.472;2022-11-15T09:26:44;3.92;;;1.90;;
63370;SDS011;49504;48.336;14.472;2022-11-15T09:31:45;4.25;;;1.50;;
63370;SDS011;49504;48.336;14.472;2022-11-15T09:36:46;3.58;;;1.45;;
63370;SDS011;49504;48.336;14.472;2022-11-15T09:46:20;4.20;;;1.70;;
63370;SDS011;49504;48.336;14.472;2022-11-15T09:54:36;3.65;;;1.58;;
63370;SDS011;49504;48.336;14.472;2022-11-15T09:59:42;3.95;;;1.83;;
63370;SDS011;49504;48.336;14.472;2022-11-15T10:04:59;4.70;;;2.53;;
63370;SDS011;49504;48.336;14.472;2022-11-15T10:10:04;4.15;;;2.10;;
63370;SDS011;49504;48.336;14.472;2022-11-15T10:18:55;4.18;;;1.83;;
63370;SDS011;49504;48.336;14.472;2022-11-15T10:24:06;5.10;;;2.15;;
63370;SDS011;49504;48.336;14.472;2022-11-15T10:29:11;5.28;;;2.28;;
63370;SDS011;49504;48.336;14.472;2022-11-15T10:34:20;3.55;;;1.95;;
63370;SDS011;49504;48.336;14.472;2022-11-15T10:39:23;4.90;;;2.08;;
63370;SDS011;49504;48.336;14.472;2022-11-15T10:45:24;5.45;;;1.90;;
63370;SDS011;49504;48.336;14.472;2022-11-15T10:50:29;5.78;;;2.60;;
63370;SDS011;49504;48.336;14.472;2022-11-15T10:55:32;3.63;;;2.00;;
63370;SDS011;49504;48.336;14.472;2022-11-15T11:00:35;4.20;;;2.00;;
63370;SDS011;49504;48.336;14.472;2022-11-15T11:05:38;4.20;;;2.00;;
63370;SDS011;49504;48.336;14.472;2022-11-15T11:10:40;4.68;;;2.40;;
63370;SDS011;49504;48.336;14.472;2022-11-15T11:15:55;4.95;;;2.17;;
63370;SDS011;49504;48.336;14.472;2022-11-15T11:25:28;4.40;;;2.08;;
63370;SDS011;49504;48.336;14.472;2022-11-15T11:30:39;4.80;;;2.45;;
63370;SDS011;49504;48.336;14.472;2022-11-15T11:35:51;5.00;;;2.80;;
63370;SDS011;49504;48.336;14.472;2022-11-15T11:41:07;4.82;;;2.72;;
63370;SDS011;49504;48.336;14.472;2022-11-15T11:46:37;4.25;;;2.50;;
63370;SDS011;49504;48.336;14.472;2022-11-15T11:51:56;4.30;;;2.47;;
63370;SDS011;49504;48.336;14.472;2022-11-15T11:57:04;4.47;;;2.13;;
63370;SDS011;49504;48.336;14.472;2022-11-15T12:11:19;4.50;;;2.63;;
63370;SDS011;49504;48.336;14.472;2022-11-15T12:17:27;5.00;;;3.20;;
63370;SDS011;49504;48.336;14.472;2022-11-15T12:22:33;4.63;;;2.33;;
63370;SDS011;49504;48.336;14.472;2022-11-15T12:27:42;5.00;;;2.60;;
63370;SDS011;49504;48.336;14.472;2022-11-15T12:32:51;5.20;;;3.10;;
63370;SDS011;49504;48.336;14.472;2022-11-15T12:38:55;4.75;;;2.95;;
63370;SDS011;49504;48.336;14.472;2022-11-15T12:43:58;4.47;;;2.42;;
63370;SDS011;49504;48.336;14.472;2022-11-15T12:56:09;4.93;;;2.72;;
63370;SDS011;49504;48.336;14.472;2022-11-15T13:12:59;5.10;;;2.63;;
63370;SDS011;49504;48.336;14.472;2022-11-15T13:23:37;4.45;;;2.60;;
63370;SDS011;49504;48.336;14.472;2022-11-15T13:28:39;5.68;;;3.20;;
63370;SDS011;49504;48.336;14.472;2022-11-15T13:33:43;4.95;;;2.90;;
63370;SDS011;49504;48.336;14.472;2022-11-15T13:38:53;5.22;;;3.08;;
63370;SDS011;49504;48.336;14.472;2022-11-15T13:43:57;5.53;;;3.17;;
63370;SDS011;49504;48.336;14.472;2022-11-15T13:48:59;5.22;;;2.80;;
63370;SDS011;49504;48.336;14.472;2022-11-15T13:54:07;5.55;;;3.38;;
63370;SDS011;49504;48.336;14.472;2022-11-15T13:59:24;5.07;;;3.10;;
63370;SDS011;49504;48.336;14.472;2022-11-15T14:04:27;5.70;;;2.92;;
63370;SDS011;49504;48.336;14.472;2022-11-15T14:09:32;5.43;;;2.95;;
63370;SDS011;49504;48.336;14.472;2022-11-15T14:14:36;5.28;;;2.83;;
63370;SDS011;49504;48.336;14.472;2022-11-15T14:19:46;5.07;;;2.90;;
63370;SDS011;49504;48.336;14.472;2022-11-15T14:25:03;5.25;;;2.80;;
63370;SDS011;49504;48.336;14.472;2022-11-15T14:31:41;4.95;;;2.88;;
63370;SDS011;49504;48.336;14.472;2022-11-15T14:36:42;5.15;;;3.03;;
63370;SDS011;49504;48.336;14.472;2022-11-15T14:42:55;5.32;;;2.85;;
63370;SDS011;49504;48.336;14.472;2022-11-15T14:47:56;5.82;;;3.33;;
63370;SDS011;49504;48.336;14.472;2022-11-15T14:52:57;7.00;;;3.05;;
63370;SDS011;49504;48.336;14.472;2022-11-15T14:58:00;5.13;;;2.90;;
63370;SDS011;49504;48.336;14.472;2022-11-15T15:03:01;5.80;;;3.10;;
63370;SDS011;49504;48.336;14.472;2022-11-15T15:08:03;4.82;;;2.97;;
63370;SDS011;49504;48.336;14.472;2022-11-15T15:13:08;5.20;;;2.95;;
63370;SDS011;49504;48.336;14.472;2022-11-15T15:18:18;5.10;;;3.00;;
63370;SDS011;49504;48.336;14.472;2022-11-15T15:23:20;5.53;;;3.40;;
63370;SDS011;49504;48.336;14.472;2022-11-15T15:28:22;6.00;;;3.38;;
63370;SDS011;49504;48.336;14.472;2022-11-15T15:33:26;5.57;;;3.10;;
63370;SDS011;49504;48.336;14.472;2022-11-15T15:38:27;6.57;;;3.95;;
63370;SDS011;49504;48.336;14.472;2022-11-15T15:43:29;5.65;;;3.45;;
63370;SDS011;49504;48.336;14.472;2022-11-15T15:48:30;6.50;;;3.50;;
63370;SDS011;49504;48.336;14.472;2022-11-15T15:53:31;6.25;;;3.88;;
63370;SDS011;49504;48.336;14.472;2022-11-15T15:58:34;6.35;;;3.38;;
63370;SDS011;49504;48.336;14.472;2022-11-15T16:03:35;6.43;;;4.10;;
63370;SDS011;49504;48.336;14.472;2022-11-15T16:08:36;5.45;;;3.58;;
63370;SDS011;49504;48.336;14.472;2022-11-15T16:14:12;6.20;;;3.80;;
63370;SDS011;49504;48.336;14.472;2022-11-15T16:19:13;7.07;;;3.90;;
63370;SDS011;49504;48.336;14.472;2022-11-15T16:24:14;6.60;;;3.50;;
63370;SDS011;49504;48.336;14.472;2022-11-15T16:29:16;6.32;;;3.65;;
63370;SDS011;49504;48.336;14.472;2022-11-15T16:34:17;6.32;;;3.30;;
63370;SDS011;49504;48.336;14.472;2022-11-15T16:39:18;6.78;;;3.60;;
63370;SDS011;49504;48.336;14.472;2022-11-15T16:46:27;6.03;;;3.30;;
63370;SDS011;49504;48.336;14.472;2022-11-15T16:51:28;4.53;;;2.90;;
63370;SDS011;49504;48.336;14.472;2022-11-15T16:56:29;7.85;;;3.00;;
63370;SDS011;49504;48.336;14.472;2022-11-15T17:01:32;6.18;;;3.17;;
63370;SDS011;49504;48.336;14.472;2022-11-15T17:06:35;6.40;;;2.95;;
63370;SDS011;49504;48.336;14.472;2022-11-15T17:11:36;7.38;;;3.30;;
63370;SDS011;49504;48.336;14.472;2022-11-15T17:16:38;5.38;;;3.17;;
63370;SDS011;49504;48.336;14.472;2022-11-15T17:21:40;6.05;;;3.22;;
63370;SDS011;49504;48.336;14.472;2022-11-15T17:26:43;5.47;;;3.00;;
63370;SDS011;49504;48.336;14.472;2022-11-15T17:31:47;5.03;;;3.00;;
63370;SDS011;49504;48.336;14.472;2022-11-15T17:36:49;5.95;;;3.13;;
63370;SDS011;49504;48.336;14.472;2022-11-15T17:41:50;5.25;;;3.03;;
63370;SDS011;49504;48.336;14.472;2022-11-15T17:46:52;5.47;;;2.92;;
63370;SDS011;49504;48.336;14.472;2022-11-15T17:51:53;5.10;;;3.00;;
63370;SDS011;49504;48.336;14.472;2022-11-15T17:56:55;6.07;;;3.17;;
63370;SDS011;49504;48.336;14.472;2022-11-15T18:01:57;5.40;;;3.15;;
63370;SDS011;49504;48.336;14.472;2022-11-15T18:06:58;6.95;;;3.33;;
63370;SDS011;49504;48.336;14.472;2022-11-15T18:11:59;6.13;;;2.95;;
63370;SDS011;49504;48.336;14.472;2022-11-15T18:17:02;5.32;;;2.95;;
63370;SDS011;49504;48.336;14.472;2022-11-15T18:22:02;5.18;;;3.00;;
63370;SDS011;49504;48.336;14.472;2022-11-15T18:27:04;5.32;;;3.30;;
63370;SDS011;49504;48.336;14.472;2022-11-15T18:32:08;4.90;;;3.15;;
63370;SDS011;49504;48.336;14.472;2022-11-15T18:37:10;5.50;;;2.90;;
63370;SDS011;49504;48.336;14.472;2022-11-15T18:42:15;4.85;;;3.03;;
63370;SDS011;49504;48.336;14.472;2022-11-15T18:47:19;5.15;;;2.75;;
63370;SDS011;49504;48.336;14.472;2022-11-15T18:52:22;6.00;;;3.17;;
63370;SDS011;49504;48.336;14.472;2022-11-15T18:57:25;5.00;;;2.80;;
63370;SDS011;49504;48.336;14.472;2022-11-15T19:02:37;5.35;;;2.90;;
63370;SDS011;49504;48.336;14.472;2022-11-15T19:08:12;5.70;;;3.25;;
63370;SDS011;49504;48.336;14.472;2022-11-15T19:13:14;4.80;;;2.28;;
63370;SDS011;49504;48.336;14.472;2022-11-15T19:18:20;6.78;;;3.42;;
63370;SDS011;49504;48.336;14.472;2022-11-15T19:23:26;4.47;;;2.42;;
63370;SDS011;49504;48.336;14.472;2022-11-15T19:28:30;6.82;;;2.58;;
63370;SDS011;49504;48.336;14.472;2022-11-15T19:33:36;4.95;;;2.67;;
63370;SDS011;49504;48.336;14.472;2022-11-15T19:38:39;5.90;;;2.80;;
63370;SDS011;49504;48.336;14.472;2022-11-15T19:45:15;6.05;;;2.88;;
63370;SDS011;49504;48.336;14.472;2022-11-15T19:50:17;5.20;;;2.72;;
63370;SDS011;49504;48.336;14.472;2022-11-15T19:55:19;5.05;;;2.63;;
63370;SDS011;49504;48.336;14.472;2022-11-15T20:00:22;5.25;;;2.70;;
63370;SDS011;49504;48.336;14.472;2022-11-15T20:05:24;4.45;;;2.55;;
63370;SDS011;49504;48.336;14.472;2022-11-15T20:10:28;3.85;;;2.22;;
63370;SDS011;49504;48.336;14.472;2022-11-15T20:15:32;4.80;;;2.60;;
63370;SDS011;49504;48.336;14.472;2022-11-15T20:20:34;5.25;;;2.55;;
63370;SDS011;49504;48.336;14.472;2022-11-15T20:25:35;5.32;;;2.83;;
63370;SDS011;49504;48.336;14.472;2022-11-15T20:30:39;4.68;;;2.53;;
63370;SDS011;49504;48.336;14.472;2022-11-15T20:35:43;4.30;;;2.30;;
63370;SDS011;49504;48.336;14.472;2022-11-15T20:40:45;4.30;;;2.17;;
63370;SDS011;49504;48.336;14.472;2022-11-15T20:45:49;4.60;;;2.80;;
63370;SDS011;49504;48.336;14.472;2022-11-15T20:50:50;4.22;;;2.42;;
63370;SDS011;49504;48.336;14.472;2022-11-15T20:55:51;4.47;;;2.50;;
63370;SDS011;49504;48.336;14.472;2022-11-15T21:00:53;4.20;;;2.10;;
63370;SDS011;49504;48.336;14.472;2022-11-15T21:09:56;3.63;;;2.08;;
63370;SDS011;49504;48.336;14.472;2022-11-15T21:14:57;4.68;;;2.50;;
63370;SDS011;49504;48.336;14.472;2022-11-15T21:19:58;4.13;;;2.15;;
63370;SDS011;49504;48.336;14.472;2022-11-15T21:25:01;4.88;;;2.20;;
63370;SDS011;49504;48.336;14.472;2022-11-15T21:33:39;4.90;;;2.15;;
63370;SDS011;49504;48.336;14.472;2022-11-15T21:38:41;4.60;;;2.28;;
63370;SDS011;49504;48.336;14.472;2022-11-15T21:43:42;5.68;;;2.60;;
63370;SDS011;49504;48.336;14.472;2022-11-15T21:48:45;4.75;;;2.30;;
63370;SDS011;49504;48.336;14.472;2022-11-15T21:53:46;4.65;;;2.45;;
63370;SDS011;49504;48.336;14.472;2022-11-15T21:59:42;4.07;;;2.30;;
63370;SDS011;49504;48.336;14.472;2022-11-15T22:04:43;4.40;;;2.35;;
63370;SDS011;49504;48.336;14.472;2022-11-15T22:09:44;4.60;;;2.58;;
63370;SDS011;49504;48.336;14.472;2022-11-15T22:14:46;4.95;;;2.85;;
63370;SDS011;49504;48.336;14.472;2022-11-15T22:19:47;3.80;;;2.22;;
63370;SDS011;49504;48.336;14.472;2022-11-15T22:24:48;3.97;;;2.15;;
63370;SDS011;49504;48.336;14.472;2022-11-15T22:29:51;4.55;;;2.40;;
63370;SDS011;49504;48.336;14.472;2022-11-15T22:34:52;4.45;;;2.65;;
63370;SDS011;49504;48.336;14.472;2022-11-15T22:39:53;4.00;;;2.17;;
63370;SDS011;49504;48.336;14.472;2022-11-15T22:44:56;4.22;;;2.50;;
63370;SDS011;49504;48.336;14.472;2022-11-15T22:49:57;4.40;;;2.50;;
63370;SDS011;49504;48.336;14.472;2022-11-15T22:54:58;4.88;;;2.75;;
63370;SDS011;49504;48.336;14.472;2022-11-15T23:00:01;4.32;;;2.40;;
63370;SDS011;49504;48.336;14.472;2022-11-15T23:05:04;4.43;;;2.58;;
63370;SDS011;49504;48.336;14.472;2022-11-15T23:10:32;4.53;;;2.45;;
63370;SDS011;49504;48.336;14.472;2022-11-15T23:15:33;4.63;;;2.45;;
63370;SDS011;49504;48.336;14.472;2022-11-15T23:20:34;7.28;;;3.08;;
63370;SDS011;49504;48.336;14.472;2022-11-15T23:25:37;5.13;;;2.88;;
63370;SDS011;49504;48.336;14.472;2022-11-15T23:30:38;5.10;;;2.95;;
63370;SDS011;49504;48.336;14.472;2022-11-15T23:35:39;4.63;;;2.45;;
63370;SDS011;49504;48.336;14.472;2022-11-15T23:40:41;4.70;;;2.70;;
63370;SDS011;49504;48.336;14.472;2022-11-15T23:45:42;4.32;;;2.38;;
63370;SDS011;49504;48.336;14.472;2022-11-15T23:53:19;5.18;;;2.55;;
63370;SDS011;49504;48.336;14.472;2022-11-15T23:58:20;5.13;;;2.75;;
